Terminal Aerodrome Forecast
Issued by NWS

Home | Current Version | Previous Version | Text Only | Print | Product List | Glossary On
Versions: 1 2 3 4 5 6 7 8 9 10 11 12 13
000
FTUS43 KFGF 252339
TAFBJI
TAF
KBJI 252339Z 2600/2624 03005KT P6SM -RA BKN040
      TEMPO 2600/2604 OVC030
     FM261200 21003KT P6SM BKN250=

USA.gov is the U.S. government's official web portal to all federal, state and local government web resources and services.